KRME/RME METAR and TAF weather

Enter ICAO airport designator
Station Type Date Time Source
KRME METAR 2020/03/28 13:53 UTC NOAA

KRME 281353Z 14006KT 10SM CLR 05/M02 A3010 RMK AO2 SLP196 T00501022


Station Type Date Time Source
KRME Decoded METAR 2020/03/28 13:53 UTC NOAA

GRIFFISS AIRFIELD, NY, United States (KRME) 43-14N 075-24W
Mar 28, 2020 - 09:53 AM EDT / 2020.03.28 1353 UTC
Wind: from the SE (140 degrees) at 7 MPH (6 KT):0
Visibility: 10 mile(s):0
Sky conditions: clear
Temperature: 41.0 F (5.0 C)
Dew Point: 28.0 F (-2.2 C)
Relative Humidity: 59%
Pressure (altimeter): 30.1 in. Hg (1019 hPa)
ob: KRME 281353Z 14006KT 10SM CLR 05/M02 A3010 RMK AO2 SLP196 T00501022
cycle: 14

Station Type Date Time Source
KRME TAF 2020/03/28 12:33 UTC NOAA

TAF KRME 281130Z 2812/2912 10006KT P6SM BKN150
FM281800 12007KT P6SM OVC060
FM282300 12008KT 6SM -RA OVC018
FM290400 11012KT 3SM -RA OVC009

Example: see airport list